Time;durP1;ratioP1;P1;durP2;ratioP2;P2;SDS_P1;SDS_P2;PMS_P1;PMS_P2;Temp;Humidity;BMP_temperature;BMP_pressure;BME280_temperature;BME280_humidity;BME280_pressure;Samples;Min_cycle;Max_cycle;Signal;HPM_P1;HPM_P2
2022/04/17 00:00:52;;;;;;;;;;;10.50;99.90;;;;;;6116944;23;19928;-80
2022/04/17 00:03:23;;;;;;;;;;;10.50;99.90;;;;;;6143005;23;19968;-80
2022/04/17 00:05:51;;;;;;;;;;;10.40;99.90;;;;;;6094208;23;19928;-80
2022/04/17 00:08:19;;;;;;;;;;;10.40;99.90;;;;;;6153147;23;19931;-80
2022/04/17 00:10:47;;;;;;;;;;;10.40;99.90;;;;;;6116308;23;19925;-80
2022/04/17 00:13:15;;;;;;;;;;;10.20;99.90;;;;;;6126595;23;19921;-80
2022/04/17 00:15:43;;;;;;;;;;;10.70;99.90;;;;;;6150712;23;19935;-80
2022/04/17 00:18:11;;;;;;;;;;;10.20;99.90;;;;;;6115633;23;19925;-81
2022/04/17 00:20:39;;;;;;;;;;;10.20;99.90;;;;;;6115964;23;19921;-80
2022/04/17 00:23:07;;;;;;;;;;;10.00;99.90;;;;;;6141154;23;19925;-80
2022/04/17 00:25:35;;;;;;;;;;;10.20;99.90;;;;;;6143249;23;19924;-81
2022/04/17 00:28:04;;;;;;;;;;;8.70;99.90;;;;;;6145043;23;19925;-81
2022/04/17 00:30:32;;;;;;;;;;;10.10;99.90;;;;;;6146224;23;19935;-79
2022/04/17 00:33:00;;;;;;;;;;;11.20;99.90;;;;;;6117301;23;19921;-81
2022/04/17 00:35:28;;;;;;;;;;;10.20;99.90;;;;;;6150655;23;19925;-80
2022/04/17 00:37:57;;;;;;;;;;;10.10;99.90;;;;;;6116110;23;19925;-81
2022/04/17 00:40:25;;;;;;;;;;;10.00;99.90;;;;;;6152479;23;19927;-81
2022/04/17 00:42:53;;;;;;;;;;;10.00;99.90;;;;;;6150415;23;19925;-80
2022/04/17 00:45:21;;;;;;;;;;;10.00;99.90;;;;;;6151388;23;19921;-81
2022/04/17 00:47:48;;;;;;;;;;;9.50;99.90;;;;;;6126669;23;19931;-80
2022/04/17 00:50:16;;;;;;;;;;;9.90;99.90;;;;;;6152118;23;19927;-80
2022/04/17 00:52:44;;;;;;;;;;;9.90;99.90;;;;;;6140821;23;19921;-81
2022/04/17 00:55:15;;;;;;;;;;;9.90;99.90;;;;;;6091449;23;19928;-81
2022/04/17 00:57:43;;;;;;;;;;;9.90;99.90;;;;;;6143789;23;19924;-81
2022/04/17 01:00:11;;;;;;;;;;;9.80;99.90;;;;;;6142986;23;19927;-80
2022/04/17 01:02:39;;;;;;;;;;;9.80;99.90;;;;;;6127679;23;19921;-80
2022/04/17 01:05:07;;;;;;;;;;;9.80;99.90;;;;;;6126305;23;19935;-80
2022/04/17 01:07:36;;;;;;;;;;;9.80;99.90;;;;;;6145199;23;19936;-81
2022/04/17 01:10:05;;;;;;;;;;;9.70;99.90;;;;;;6115261;23;19921;-81
2022/04/17 01:12:36;;;;;;;;;;;8.70;99.90;;;;;;6152635;23;19921;-81
2022/04/17 01:15:05;;;;;;;;;;;9.70;99.90;;;;;;6136609;23;19931;-79
2022/04/17 01:17:33;;;;;;;;;;;9.70;99.90;;;;;;6123033;23;19921;-80
2022/04/17 01:20:01;;;;;;;;;;;9.70;99.90;;;;;;6115591;23;19921;-80
2022/04/17 01:22:29;;;;;;;;;;;9.70;99.90;;;;;;6125237;23;19925;-80
2022/04/17 01:27:44;;;;;;;;;;;9.60;99.90;;;;;;6117756;23;19924;-81
2022/04/17 01:30:11;;;;;;;;;;;9.60;99.90;;;;;;6151205;23;19921;-79
2022/04/17 01:32:39;;;;;;;;;;;9.60;99.90;;;;;;6125217;23;19925;-80
2022/04/17 01:35:07;;;;;;;;;;;9.60;99.90;;;;;;6116724;23;19932;-81
2022/04/17 01:37:35;;;;;;;;;;;9.80;99.90;;;;;;6116393;23;19931;-80
2022/04/17 01:40:02;;;;;;;;;;;9.50;99.90;;;;;;6115095;23;19924;-80
2022/04/17 01:42:31;;;;;;;;;;;9.50;99.90;;;;;;6115262;23;19921;-80
2022/04/17 01:44:58;;;;;;;;;;;9.50;99.90;;;;;;6116523;23;19921;-81
2022/04/17 01:47:27;;;;;;;;;;;9.50;99.90;;;;;;6126153;23;19921;-80
2022/04/17 01:49:55;;;;;;;;;;;9.50;99.90;;;;;;6148823;23;20165;-80
2022/04/17 01:52:25;;;;;;;;;;;9.70;99.90;;;;;;6114416;23;19921;-80
2022/04/17 01:54:53;;;;;;;;;;;9.50;99.90;;;;;;6115139;23;19931;-81
2022/04/17 01:57:21;;;;;;;;;;;9.40;99.90;;;;;;6150867;23;20603;-80
2022/04/17 01:59:48;;;;;;;;;;;9.40;99.90;;;;;;6117345;23;19921;-81
2022/04/17 02:02:18;;;;;;;;;;;9.40;99.90;;;;;;6143060;23;20013;-80
2022/04/17 02:04:46;;;;;;;;;;;9.30;99.90;;;;;;6115452;23;19921;-81
2022/04/17 02:07:14;;;;;;;;;;;9.30;99.90;;;;;;6150514;23;19928;-80
2022/04/17 02:09:42;;;;;;;;;;;9.20;99.90;;;;;;6116103;23;20264;-80
2022/04/17 02:12:09;;;;;;;;;;;9.20;99.90;;;;;;6151963;23;19925;-80
2022/04/17 02:14:38;;;;;;;;;;;9.20;99.90;;;;;;6115581;23;19921;-80
2022/04/17 02:17:06;;;;;;;;;;;9.10;99.90;;;;;;6092692;23;19924;-80
2022/04/17 02:19:33;;;;;;;;;;;9.10;99.90;;;;;;6140165;23;19921;-81
2022/04/17 02:22:01;;;;;;;;;;;9.10;99.90;;;;;;6143606;23;19927;-80
2022/04/17 02:24:28;;;;;;;;;;;9.00;99.90;;;;;;6141723;23;19925;-80
2022/04/17 02:26:56;;;;;;;;;;;8.90;99.90;;;;;;6139096;23;19927;-80
2022/04/17 02:29:24;;;;;;;;;;;9.00;99.90;;;;;;6153063;23;19943;-81
2022/04/17 02:31:51;;;;;;;;;;;9.00;99.90;;;;;;6118560;23;19921;-80
2022/04/17 02:34:20;;;;;;;;;;;8.90;99.90;;;;;;6142989;23;19921;-80
2022/04/17 02:36:48;;;;;;;;;;;7.40;99.90;;;;;;6148115;23;19925;-81
2022/04/17 02:39:17;;;;;;;;;;;8.80;99.90;;;;;;6118409;23;19931;-80
2022/04/17 02:41:47;;;;;;;;;;;8.80;99.90;;;;;;6127869;23;19932;-81
2022/04/17 02:44:15;;;;;;;;;;;8.70;99.90;;;;;;6142656;23;19931;-80
2022/04/17 02:49:30;;;;;;;;;;;7.50;99.90;;;;;;6140553;23;19921;-80
2022/04/17 02:51:59;;;;;;;;;;;7.20;99.90;;;;;;6147133;23;19928;-80
2022/04/17 02:54:27;;;;;;;;;;;8.50;99.90;;;;;;6092358;23;19920;-80
2022/04/17 02:56:55;;;;;;;;;;;8.50;99.90;;;;;;6144249;23;19920;-80
2022/04/17 02:59:24;;;;;;;;;;;8.50;99.90;;;;;;6150528;23;19931;-80
2022/04/17 03:07:25;;;;;;;;;;;8.40;99.90;;;;;;6142493;23;19947;-80
2022/04/17 03:09:52;;;;;;;;;;;8.30;99.90;;;;;;6115535;23;19931;-80
2022/04/17 03:12:20;;;;;;;;;;;8.30;99.90;;;;;;6151681;23;19936;-80
2022/04/17 03:14:47;;;;;;;;;;;8.20;99.90;;;;;;6116031;23;19925;-79
2022/04/17 03:17:15;;;;;;;;;;;8.10;99.90;;;;;;6147078;23;20252;-80
2022/04/17 03:19:43;;;;;;;;;;;8.10;99.90;;;;;;6117378;23;19925;-80
2022/04/17 03:22:11;;;;;;;;;;;8.00;99.90;;;;;;6118732;23;19927;-80
2022/04/17 03:24:39;;;;;;;;;;;8.00;99.90;;;;;;6124183;23;20390;-81
2022/04/17 03:27:06;;;;;;;;;;;8.00;99.90;;;;;;6118765;23;19931;-82
2022/04/17 03:29:34;;;;;;;;;;;8.00;99.90;;;;;;6150887;23;19943;-80
2022/04/17 03:32:02;;;;;;;;;;;8.00;99.90;;;;;;6140355;23;19921;-81
2022/04/17 03:34:30;;;;;;;;;;;8.10;99.90;;;;;;6144653;23;19925;-79
2022/04/17 03:36:59;;;;;;;;;;;8.00;99.90;;;;;;6116289;23;19921;-80
2022/04/17 03:39:26;;;;;;;;;;;8.00;99.90;;;;;;6140256;23;19925;-80
2022/04/17 03:41:54;;;;;;;;;;;7.90;99.90;;;;;;6116771;23;19927;-80
2022/04/17 03:44:22;;;;;;;;;;;7.90;99.90;;;;;;6126729;23;19921;-80
2022/04/17 03:46:52;;;;;;;;;;;9.00;99.90;;;;;;6141255;23;19925;-80
2022/04/17 03:49:20;;;;;;;;;;;7.80;99.90;;;;;;6120010;23;19931;-80
2022/04/17 03:51:47;;;;;;;;;;;7.70;99.90;;;;;;6148759;23;19951;-80
2022/04/17 03:54:16;;;;;;;;;;;7.70;99.90;;;;;;6126402;23;19921;-79
2022/04/17 03:56:46;;;;;;;;;;;7.70;99.90;;;;;;6117133;23;19925;-80
2022/04/17 03:59:14;;;;;;;;;;;7.70;99.90;;;;;;6143771;23;19921;-80
2022/04/17 04:01:46;;;;;;;;;;;8.10;99.90;;;;;;6092917;23;19927;-81
2022/04/17 04:04:19;;;;;;;;;;;9.00;99.90;;;;;;6115823;23;19931;-80
2022/04/17 04:06:46;;;;;;;;;;;5.80;99.90;;;;;;6150823;23;19935;-81
2022/04/17 04:09:14;;;;;;;;;;;7.70;99.90;;;;;;6152491;23;20336;-80
2022/04/17 04:11:43;;;;;;;;;;;7.70;99.90;;;;;;6117666;23;19928;-80
2022/04/17 04:14:12;;;;;;;;;;;7.70;99.90;;;;;;6142230;23;19921;-82
2022/04/17 04:16:40;;;;;;;;;;;6.60;99.90;;;;;;6144043;23;19969;-80
2022/04/17 04:19:10;;;;;;;;;;;7.70;99.90;;;;;;6146367;23;19925;-81
2022/04/17 04:21:47;;;;;;;;;;;7.70;99.90;;;;;;6145391;23;19935;-80
2022/04/17 04:24:17;;;;;;;;;;;7.70;99.90;;;;;;6117086;23;19921;-80
2022/04/17 04:26:45;;;;;;;;;;;7.70;99.90;;;;;;6140879;23;19932;-80
2022/04/17 04:29:13;;;;;;;;;;;7.70;99.90;;;;;;6153248;23;19921;-81
2022/04/17 04:31:43;;;;;;;;;;;7.60;99.90;;;;;;6152748;23;19931;-82
2022/04/17 04:34:11;;;;;;;;;;;7.70;99.90;;;;;;6152129;23;19921;-81
2022/04/17 04:36:39;;;;;;;;;;;7.00;99.90;;;;;;6154066;23;19925;-79
2022/04/17 04:39:07;;;;;;;;;;;7.60;99.90;;;;;;6144779;23;19921;-80
2022/04/17 04:41:35;;;;;;;;;;;7.70;99.90;;;;;;6142003;23;19921;-80
2022/04/17 04:44:04;;;;;;;;;;;7.60;99.90;;;;;;6094982;23;20354;-81
2022/04/17 04:46:31;;;;;;;;;;;7.80;99.90;;;;;;6117743;23;19932;-80
2022/04/17 04:51:46;;;;;;;;;;;7.60;99.90;;;;;;6140795;23;19921;-80
2022/04/17 04:54:14;;;;;;;;;;;7.70;99.90;;;;;;6146520;23;19928;-80
2022/04/17 04:56:42;;;;;;;;;;;7.60;99.90;;;;;;6127438;23;19925;-80
2022/04/17 04:59:10;;;;;;;;;;;7.20;99.90;;;;;;6152530;23;19928;-80
2022/04/17 05:01:39;;;;;;;;;;;9.00;99.90;;;;;;6117354;23;19921;-79
2022/04/17 05:04:08;;;;;;;;;;;7.60;99.90;;;;;;6145113;23;20273;-80
2022/04/17 05:06:36;;;;;;;;;;;7.60;99.90;;;;;;6151302;23;19921;-80
2022/04/17 05:09:03;;;;;;;;;;;7.60;99.90;;;;;;6141427;23;20331;-80
2022/04/17 05:11:34;;;;;;;;;;;7.60;99.90;;;;;;6152147;23;20394;-81
2022/04/17 05:14:04;;;;;;;;;;;7.60;99.90;;;;;;6121223;23;19935;-81
2022/04/17 05:16:32;;;;;;;;;;;7.20;99.90;;;;;;6154904;23;19928;-81
2022/04/17 05:21:47;;;;;;;;;;;7.60;99.90;;;;;;6118959;23;19921;-80
2022/04/17 05:24:15;;;;;;;;;;;7.50;99.90;;;;;;6143119;23;19927;-81
2022/04/17 05:26:48;;;;;;;;;;;7.50;99.90;;;;;;6143632;23;19921;-80
2022/04/17 05:29:16;;;;;;;;;;;7.50;99.90;;;;;;6119720;23;19928;-80
2022/04/17 05:31:44;;;;;;;;;;;7.50;99.90;;;;;;6145139;23;19935;-79
2022/04/17 05:34:15;;;;;;;;;;;7.50;99.90;;;;;;6143037;23;19927;-80
2022/04/17 05:36:44;;;;;;;;;;;7.50;99.90;;;;;;6119075;23;19921;-81
2022/04/17 05:39:11;;;;;;;;;;;7.50;99.90;;;;;;6119389;23;19925;-80
2022/04/17 05:41:40;;;;;;;;;;;7.50;99.90;;;;;;6146062;23;19925;-81
2022/04/17 05:44:08;;;;;;;;;;;7.40;99.90;;;;;;6154056;23;20375;-80
2022/04/17 05:46:39;;;;;;;;;;;7.50;99.90;;;;;;6145471;23;19925;-80
2022/04/17 05:49:07;;;;;;;;;;;7.50;99.90;;;;;;6144832;23;19924;-79
2022/04/17 05:51:39;;;;;;;;;;;9.10;99.90;;;;;;6151822;23;19921;-80
2022/04/17 05:54:07;;;;;;;;;;;7.50;99.90;;;;;;6120759;23;19931;-80
2022/04/17 05:56:37;;;;;;;;;;;7.40;99.90;;;;;;6128149;23;19927;-80
2022/04/17 05:59:06;;;;;;;;;;;7.50;99.90;;;;;;6142693;23;19927;-79
2022/04/17 06:01:34;;;;;;;;;;;7.70;99.90;;;;;;6116926;23;19921;-80
2022/04/17 06:04:02;;;;;;;;;;;7.50;99.90;;;;;;6144023;23;19936;-80
2022/04/17 06:06:29;;;;;;;;;;;7.80;99.90;;;;;;6152698;23;20353;-80
2022/04/17 06:09:02;;;;;;;;;;;7.60;99.90;;;;;;6154821;23;19943;-80
2022/04/17 06:11:30;;;;;;;;;;;7.60;99.90;;;;;;6094180;23;19924;-80
2022/04/17 06:14:23;;;;;;;;;;;7.70;99.90;;;;;;6128515;23;19931;-81
2022/04/17 06:16:51;;;;;;;;;;;7.90;99.90;;;;;;6144929;23;20261;-80
2022/04/17 06:19:19;;;;;;;;;;;7.70;99.90;;;;;;6152869;23;19921;-79
2022/04/17 06:21:47;;;;;;;;;;;7.80;99.90;;;;;;6152453;23;19927;-80
2022/04/17 06:24:16;;;;;;;;;;;7.90;99.90;;;;;;6111803;23;19928;-80
2022/04/17 06:26:48;;;;;;;;;;;8.00;99.90;;;;;;6115712;23;19921;-81
2022/04/17 06:29:15;;;;;;;;;;;8.00;99.90;;;;;;6112442;23;19928;-80
2022/04/17 06:31:45;;;;;;;;;;;8.60;99.90;;;;;;6113565;23;19925;-80
2022/04/17 06:34:13;;;;;;;;;;;8.20;99.90;;;;;;6124305;23;19925;-80
2022/04/17 06:36:41;;;;;;;;;;;8.20;99.90;;;;;;6123692;23;20391;-81
2022/04/17 06:39:10;;;;;;;;;;;8.40;99.90;;;;;;6124557;23;19922;-81
2022/04/17 06:41:38;;;;;;;;;;;8.40;99.90;;;;;;6115038;23;19925;-80
2022/04/17 06:44:07;;;;;;;;;;;8.50;99.90;;;;;;6111310;23;20229;-81
2022/04/17 06:46:34;;;;;;;;;;;8.50;99.90;;;;;;6115949;23;19921;-82
2022/04/17 06:49:02;;;;;;;;;;;8.50;99.90;;;;;;6117020;23;19921;-81
2022/04/17 06:51:31;;;;;;;;;;;8.70;99.90;;;;;;6118472;23;19928;-80
2022/04/17 06:54:00;;;;;;;;;;;8.70;99.90;;;;;;6123383;23;20092;-81
2022/04/17 06:56:27;;;;;;;;;;;8.80;99.90;;;;;;6097585;23;19921;-81
2022/04/17 06:58:56;;;;;;;;;;;8.60;99.90;;;;;;6122453;23;19921;-80
2022/04/17 07:01:23;;;;;;;;;;;9.00;99.90;;;;;;6125136;23;19905;-79
2022/04/17 07:03:53;;;;;;;;;;;9.50;99.90;;;;;;6124149;23;20014;-81
2022/04/17 07:06:21;;;;;;;;;;;9.30;99.90;;;;;;6112826;23;19931;-80
2022/04/17 07:08:50;;;;;;;;;;;9.30;99.90;;;;;;6115577;23;19932;-81
2022/04/17 07:11:22;;;;;;;;;;;9.40;99.90;;;;;;6089099;23;19922;-80
2022/04/17 07:13:50;;;;;;;;;;;9.50;99.90;;;;;;6116000;23;19925;-81
2022/04/17 07:16:19;;;;;;;;;;;9.60;99.90;;;;;;6116974;23;19925;-81
2022/04/17 07:18:47;;;;;;;;;;;9.70;99.90;;;;;;6124563;23;19928;-82
2022/04/17 07:21:16;;;;;;;;;;;9.90;99.90;;;;;;6119443;23;19928;-81
2022/04/17 07:23:45;;;;;;;;;;;9.80;99.90;;;;;;6117789;23;19909;-81
2022/04/17 07:26:13;;;;;;;;;;;10.20;99.90;;;;;;6156286;23;19921;-81
2022/04/17 07:28:42;;;;;;;;;;;10.10;99.90;;;;;;6156135;23;19931;-79
2022/04/17 07:31:09;;;;;;;;;;;10.30;99.90;;;;;;6097103;23;19928;-80
2022/04/17 07:33:38;;;;;;;;;;;10.80;99.90;;;;;;6119004;23;19921;-80
2022/04/17 07:36:06;;;;;;;;;;;10.60;99.90;;;;;;6119574;23;19921;-80
2022/04/17 07:38:34;;;;;;;;;;;10.70;99.90;;;;;;6119353;23;19927;-80
2022/04/17 07:41:03;;;;;;;;;;;10.90;99.90;;;;;;6143673;23;19921;-80
2022/04/17 07:43:31;;;;;;;;;;;11.00;99.90;;;;;;6130107;23;19925;-80
2022/04/17 07:46:00;;;;;;;;;;;11.20;99.90;;;;;;6154136;23;19925;-81
2022/04/17 07:48:28;;;;;;;;;;;11.30;99.90;;;;;;6143820;23;19925;-81
2022/04/17 07:50:56;;;;;;;;;;;11.50;99.90;;;;;;6146928;23;19925;-80
2022/04/17 07:53:26;;;;;;;;;;;11.60;99.90;;;;;;6148877;23;20400;-81
2022/04/17 07:55:56;;;;;;;;;;;11.80;99.90;;;;;;6124887;23;19927;-80
2022/04/17 07:58:39;;;;;;;;;;;12.00;99.90;;;;;;6124164;23;19921;-80
2022/04/17 08:01:12;;;;;;;;;;;12.10;99.90;;;;;;6154901;23;19924;-81
2022/04/17 08:06:10;;;;;;;;;;;12.30;99.90;;;;;;6146759;23;19928;-82
2022/04/17 08:08:41;;;;;;;;;;;12.40;99.90;;;;;;6118471;23;19929;-80
2022/04/17 08:11:10;;;;;;;;;;;10.80;99.90;;;;;;6094796;23;19908;-80
2022/04/17 08:13:39;;;;;;;;;;;12.60;99.90;;;;;;6153198;23;19924;-84
2022/04/17 08:16:08;;;;;;;;;;;12.80;99.90;;;;;;6147682;23;19921;-82
2022/04/17 08:18:42;;;;;;;;;;;12.90;99.90;;;;;;6143963;23;19928;-81
2022/04/17 08:21:11;;;;;;;;;;;13.00;99.90;;;;;;6144837;23;20203;-80
2022/04/17 08:23:39;;;;;;;;;;;13.00;99.90;;;;;;6142300;23;19927;-81
2022/04/17 08:26:07;;;;;;;;;;;13.20;99.90;;;;;;6119906;23;19920;-81
2022/04/17 08:28:38;;;;;;;;;;;14.80;99.90;;;;;;6118762;23;19921;-80
2022/04/17 08:31:06;;;;;;;;;;;13.40;99.90;;;;;;6143791;23;19921;-81
2022/04/17 08:33:34;;;;;;;;;;;13.50;99.90;;;;;;6154741;23;19931;-80
2022/04/17 08:36:03;;;;;;;;;;;13.60;99.90;;;;;;6154409;23;19931;-81
2022/04/17 08:38:34;;;;;;;;;;;13.80;99.90;;;;;;6145802;23;19927;-81
2022/04/17 08:41:05;;;;;;;;;;;13.90;99.90;;;;;;6151955;23;19921;-81
2022/04/17 08:43:32;;;;;;;;;;;14.00;99.90;;;;;;6118225;23;19932;-81
2022/04/17 08:46:01;;;;;;;;;;;14.10;99.60;;;;;;6152011;23;19920;-81
2022/04/17 08:48:31;;;;;;;;;;;14.10;99.60;;;;;;6142525;23;19929;-81
2022/04/17 08:51:00;;;;;;;;;;;14.20;98.20;;;;;;6145666;23;19927;-81
2022/04/17 08:53:30;;;;;;;;;;;14.30;98.90;;;;;;6153068;23;20300;-80
2022/04/17 08:55:58;;;;;;;;;;;14.30;98.20;;;;;;6152841;23;19925;-81
2022/04/17 08:58:26;;;;;;;;;;;14.60;98.30;;;;;;6116753;23;19928;-81
2022/04/17 09:00:54;;;;;;;;;;;14.50;96.00;;;;;;6144758;23;19920;-81
2022/04/17 09:03:23;;;;;;;;;;;15.30;96.70;;;;;;6117987;23;20092;-81
2022/04/17 09:05:51;;;;;;;;;;;14.60;97.30;;;;;;6144564;23;19929;-80
2022/04/17 09:08:21;;;;;;;;;;;14.90;97.40;;;;;;6148020;23;19931;-79
2022/04/17 09:11:08;;;;;;;;;;;14.90;95.90;;;;;;6128143;23;19927;-80
2022/04/17 09:13:40;;;;;;;;;;;14.80;95.80;;;;;;6153529;23;19931;-81
2022/04/17 09:16:09;;;;;;;;;;;15.00;95.70;;;;;;6144723;23;19925;-82
2022/04/17 09:18:38;;;;;;;;;;;14.90;95.30;;;;;;6145531;23;19920;-81
2022/04/17 09:21:06;;;;;;;;;;;15.20;94.40;;;;;;6094892;23;19927;-81
2022/04/17 09:23:36;;;;;;;;;;;15.30;95.50;;;;;;6147537;23;19921;-80
2022/04/17 09:26:06;;;;;;;;;;;15.30;94.50;;;;;;6153521;23;20265;-82
2022/04/17 09:28:36;;;;;;;;;;;15.30;93.40;;;;;;6144319;23;20255;-80
2022/04/17 09:31:11;;;;;;;;;;;16.30;94.70;;;;;;6154499;23;19921;-81
2022/04/17 09:33:40;;;;;;;;;;;15.60;94.50;;;;;;6143672;23;20029;-80
2022/04/17 09:36:08;;;;;;;;;;;15.50;94.10;;;;;;6151012;23;19915;-81
2022/04/17 09:38:42;;;;;;;;;;;15.70;94.00;;;;;;6151101;23;19925;-80
2022/04/17 09:41:13;;;;;;;;;;;15.60;94.20;;;;;;6117411;23;19931;-81
2022/04/17 09:43:43;;;;;;;;;;;15.90;93.70;;;;;;6144024;23;19931;-81
2022/04/17 09:46:13;;;;;;;;;;;15.90;92.90;;;;;;6119379;23;19925;-81
2022/04/17 09:48:43;;;;;;;;;;;15.90;92.60;;;;;;6144995;23;19921;-80
2022/04/17 09:51:22;;;;;;;;;;;16.10;92.70;;;;;;6142961;23;19964;-81
2022/04/17 09:53:57;;;;;;;;;;;15.90;92.60;;;;;;6117062;23;19921;-81
2022/04/17 09:56:32;;;;;;;;;;;16.00;92.50;;;;;;6141466;23;19931;-82
2022/04/17 09:59:01;;;;;;;;;;;15.70;92.50;;;;;;6116916;23;19921;-81
2022/04/17 10:01:29;;;;;;;;;;;16.20;92.70;;;;;;6142690;23;19921;-80
2022/04/17 10:03:58;;;;;;;;;;;16.40;92.70;;;;;;6142908;23;20183;-81
2022/04/17 10:06:27;;;;;;;;;;;16.40;92.30;;;;;;6154664;23;19925;-79
2022/04/17 10:08:56;;;;;;;;;;;16.50;92.40;;;;;;6154888;23;19931;-81
2022/04/17 10:11:25;;;;;;;;;;;17.40;91.70;;;;;;6117443;23;19921;-81
2022/04/17 10:13:53;;;;;;;;;;;16.90;92.70;;;;;;6153269;23;19925;-81
2022/04/17 10:16:21;;;;;;;;;;;17.00;91.30;;;;;;6152833;23;19924;-81
2022/04/17 10:18:50;;;;;;;;;;;17.00;92.10;;;;;;6144591;23;19947;-80
2022/04/17 10:21:22;;;;;;;;;;;17.10;90.50;;;;;;6144839;23;19921;-80
2022/04/17 10:23:50;;;;;;;;;;;17.20;92.20;;;;;;6143864;23;19928;-81
2022/04/17 10:26:22;;;;;;;;;;;17.30;91.20;;;;;;6126033;23;19924;-81
2022/04/17 10:28:54;;;;;;;;;;;17.40;88.50;;;;;;6153044;23;19927;-81
2022/04/17 10:31:22;;;;;;;;;;;17.40;90.30;;;;;;6128083;23;19925;-81
2022/04/17 10:33:49;;;;;;;;;;;17.50;89.90;;;;;;6152645;23;19924;-81
2022/04/17 10:36:33;;;;;;;;;;;17.60;88.50;;;;;;6119260;23;19927;-80
2022/04/17 10:39:13;;;;;;;;;;;17.60;87.50;;;;;;6118213;23;19935;-81
2022/04/17 10:41:44;;;;;;;;;;;17.70;88.20;;;;;;6154680;23;19921;-81
2022/04/17 10:44:15;;;;;;;;;;;17.70;89.00;;;;;;6155023;23;19921;-81
2022/04/17 10:46:49;;;;;;;;;;;18.00;89.00;;;;;;6094569;23;19925;-82
2022/04/17 10:49:22;;;;;;;;;;;17.30;88.80;;;;;;6119885;23;19927;-82
2022/04/17 10:51:56;;;;;;;;;;;18.00;89.50;;;;;;6119461;23;19921;-81
2022/04/17 10:54:25;;;;;;;;;;;18.20;88.50;;;;;;6146418;23;19924;-81
2022/04/17 10:56:54;;;;;;;;;;;17.10;88.00;;;;;;6144925;23;19931;-80
2022/04/17 10:59:30;;;;;;;;;;;18.40;86.30;;;;;;6141350;23;19935;-82
2022/04/17 11:02:04;;;;;;;;;;;18.60;86.50;;;;;;6154496;23;19936;-81
2022/04/17 11:04:39;;;;;;;;;;;18.80;87.50;;;;;;6152471;23;19925;-81
2022/04/17 11:07:07;;;;;;;;;;;18.80;85.80;;;;;;6155362;23;19921;-82
2022/04/17 11:09:39;;;;;;;;;;;18.90;83.50;;;;;;6120928;23;19931;-82
2022/04/17 11:12:08;;;;;;;;;;;19.00;85.30;;;;;;6145848;23;19925;-83
2022/04/17 11:14:39;;;;;;;;;;;19.10;81.90;;;;;;6155946;23;19931;-80
2022/04/17 11:17:08;;;;;;;;;;;19.30;83.50;;;;;;6096742;23;19920;-81
2022/04/17 11:19:37;;;;;;;;;;;19.30;84.60;;;;;;6128457;23;19920;-81
2022/04/17 11:22:07;;;;;;;;;;;19.40;83.60;;;;;;6142761;23;20153;-81
2022/04/17 11:24:54;;;;;;;;;;;18.40;81.50;;;;;;6151490;23;19925;-82
2022/04/17 11:27:45;;;;;;;;;;;19.60;83.40;;;;;;6121222;23;19927;-81
2022/04/17 11:30:34;;;;;;;;;;;19.70;80.50;;;;;;6155091;23;19924;-81
2022/04/17 11:33:02;;;;;;;;;;;19.80;81.50;;;;;;6119989;23;19921;-82
2022/04/17 11:35:30;;;;;;;;;;;18.50;79.40;;;;;;6146044;23;19921;-81
2022/04/17 11:38:03;;;;;;;;;;;20.10;81.00;;;;;;6153651;23;19931;-82
2022/04/17 11:40:37;;;;;;;;;;;20.10;77.20;;;;;;6142535;23;19931;-82
2022/04/17 11:43:08;;;;;;;;;;;20.40;76.60;;;;;;6128222;23;20359;-81
2022/04/17 11:45:39;;;;;;;;;;;20.20;75.80;;;;;;6117798;23;19921;-80
2022/04/17 11:48:08;;;;;;;;;;;20.20;75.40;;;;;;6141893;23;19921;-81
2022/04/17 11:50:37;;;;;;;;;;;20.20;72.60;;;;;;6144881;23;19921;-82
2022/04/17 11:53:15;;;;;;;;;;;20.30;72.40;;;;;;6143363;23;19921;-82
2022/04/17 11:55:44;;;;;;;;;;;20.40;73.70;;;;;;6144837;23;19924;-81
2022/04/17 11:58:13;;;;;;;;;;;20.30;74.30;;;;;;6152689;23;19935;-82
2022/04/17 12:00:41;;;;;;;;;;;20.40;73.00;;;;;;6117306;23;20257;-81
2022/04/17 12:03:09;;;;;;;;;;;20.40;73.30;;;;;;6142192;23;19935;-81
2022/04/17 12:05:37;;;;;;;;;;;20.40;72.30;;;;;;6151967;23;19970;-81
2022/04/17 12:08:09;;;;;;;;;;;20.50;70.80;;;;;;6151692;23;19935;-81
2022/04/17 12:10:41;;;;;;;;;;;20.50;71.10;;;;;;6117868;23;19925;-81
2022/04/17 12:13:13;;;;;;;;;;;21.10;72.30;;;;;;6092364;23;19936;-81
2022/04/17 12:15:41;;;;;;;;;;;21.90;71.10;;;;;;6142655;23;19927;-83
2022/04/17 12:18:09;;;;;;;;;;;20.70;70.80;;;;;;6127536;23;19931;-81
2022/04/17 12:20:38;;;;;;;;;;;20.70;70.90;;;;;;6121155;23;19940;-81
2022/04/17 12:23:06;;;;;;;;;;;20.70;71.40;;;;;;6149979;23;19932;-81
2022/04/17 12:25:35;;;;;;;;;;;20.80;66.70;;;;;;6119675;23;19928;-81
2022/04/17 12:28:03;;;;;;;;;;;20.90;68.40;;;;;;6117433;23;19929;-81
2022/04/17 12:30:32;;;;;;;;;;;21.00;69.50;;;;;;6128149;23;19921;-82
2022/04/17 12:33:00;;;;;;;;;;;20.90;67.30;;;;;;6146641;23;19921;-82
2022/04/17 12:35:29;;;;;;;;;;;21.00;66.70;;;;;;6129492;23;19932;-81
2022/04/17 12:38:03;;;;;;;;;;;20.90;67.90;;;;;;6129786;23;20268;-82
2022/04/17 12:40:36;;;;;;;;;;;21.60;67.80;;;;;;6127914;23;20181;-82
2022/04/17 12:43:20;;;;;;;;;;;21.10;66.40;;;;;;6151854;23;19925;-82
2022/04/17 12:45:53;;;;;;;;;;;20.80;65.50;;;;;;6140227;23;19925;-81
2022/04/17 12:48:28;;;;;;;;;;;20.90;65.90;;;;;;6116210;23;19921;-81
2022/04/17 12:51:06;;;;;;;;;;;21.00;64.50;;;;;;6117325;23;19921;-82
2022/04/17 12:53:39;;;;;;;;;;;21.00;64.40;;;;;;6120072;23;19939;-80
2022/04/17 12:56:09;;;;;;;;;;;21.00;64.70;;;;;;6119140;23;19927;-82
2022/04/17 12:58:52;;;;;;;;;;;21.00;64.30;;;;;;6153742;23;19924;-82
2022/04/17 13:01:22;;;;;;;;;;;21.20;63.20;;;;;;6142993;23;19925;-81
2022/04/17 13:04:19;;;;;;;;;;;21.10;63.20;;;;;;6117475;23;19931;-81
2022/04/17 13:06:50;;;;;;;;;;;21.20;63.20;;;;;;6119307;23;19915;-81
2022/04/17 13:09:26;;;;;;;;;;;21.30;63.60;;;;;;6148019;23;19943;-80
2022/04/17 13:11:56;;;;;;;;;;;21.30;64.30;;;;;;6154448;23;19932;-81
2022/04/17 13:14:30;;;;;;;;;;;21.40;62.00;;;;;;6117092;23;19921;-83
2022/04/17 13:17:00;;;;;;;;;;;21.40;61.00;;;;;;6142540;23;19936;-83
2022/04/17 13:19:31;;;;;;;;;;;21.50;62.10;;;;;;6119664;23;19920;-82
2022/04/17 13:21:59;;;;;;;;;;;21.80;60.70;;;;;;6123125;23;19920;-83
2022/04/17 13:24:28;;;;;;;;;;;21.80;62.30;;;;;;6118816;23;19921;-82
2022/04/17 13:26:56;;;;;;;;;;;22.10;60.60;;;;;;6143645;23;19931;-82
2022/04/17 13:29:24;;;;;;;;;;;22.30;60.70;;;;;;6153649;23;19931;-82
2022/04/17 13:31:52;;;;;;;;;;;22.40;60.40;;;;;;6142236;23;19921;-81
2022/04/17 13:34:22;;;;;;;;;;;22.60;61.80;;;;;;6141085;23;19927;-82
2022/04/17 13:38:10;;;;;;;;;;;22.60;58.80;;;;;;6094454;23;19921;-81
2022/04/17 13:39:38;;;;;;;;;;;22.60;58.50;;;;;;6115752;23;19929;-81
2022/04/17 13:42:07;;;;;;;;;;;22.70;56.50;;;;;;6152466;23;20087;-81
2022/04/17 13:44:34;;;;;;;;;;;22.70;58.20;;;;;;6116792;23;19921;-81
2022/04/17 13:47:03;;;;;;;;;;;22.70;58.90;;;;;;6117760;23;20389;-82
2022/04/17 13:49:31;;;;;;;;;;;22.80;58.00;;;;;;6140544;23;19921;-81
2022/04/17 13:51:59;;;;;;;;;;;22.80;57.70;;;;;;6142173;23;19924;-82
2022/04/17 13:54:27;;;;;;;;;;;23.00;56.20;;;;;;6140707;23;20348;-81
2022/04/17 13:56:54;;;;;;;;;;;22.50;56.40;;;;;;6151695;23;19931;-82
2022/04/17 13:59:22;;;;;;;;;;;23.20;56.20;;;;;;6151370;23;19921;-81
2022/04/17 14:01:50;;;;;;;;;;;23.40;53.90;;;;;;6126644;23;19928;-82
2022/04/17 14:04:19;;;;;;;;;;;23.40;52.90;;;;;;6143727;23;19927;-83
2022/04/17 14:06:47;;;;;;;;;;;23.40;52.90;;;;;;6149870;23;20069;-83
2022/04/17 14:09:17;;;;;;;;;;;23.50;51.30;;;;;;6116546;23;19925;-81
2022/04/17 14:11:46;;;;;;;;;;;23.60;53.30;;;;;;6116325;23;19965;-81
2022/04/17 14:14:14;;;;;;;;;;;23.50;51.50;;;;;;6093376;23;19929;-82
2022/04/17 14:16:42;;;;;;;;;;;23.80;52.30;;;;;;6144871;23;19931;-82
2022/04/17 14:19:09;;;;;;;;;;;23.80;49.40;;;;;;6152379;23;19927;-82
2022/04/17 14:21:37;;;;;;;;;;;23.80;49.20;;;;;;6092214;23;19925;-83
2022/04/17 14:24:05;;;;;;;;;;;23.90;49.10;;;;;;6147642;23;19921;-81
2022/04/17 14:26:33;;;;;;;;;;;23.80;48.70;;;;;;6117611;23;19927;-83
2022/04/17 14:29:00;;;;;;;;;;;23.90;49.10;;;;;;6094164;23;19943;-83
2022/04/17 14:31:29;;;;;;;;;;;24.10;49.50;;;;;;6142288;23;19929;-82
2022/04/17 14:33:57;;;;;;;;;;;24.10;48.20;;;;;;6152112;23;20381;-82
2022/04/17 14:36:30;;;;;;;;;;;24.20;48.20;;;;;;6117778;23;19921;-84
2022/04/17 14:38:57;;;;;;;;;;;24.20;46.70;;;;;;6146014;23;19931;-82
2022/04/17 14:41:25;;;;;;;;;;;24.20;48.80;;;;;;6128386;23;19931;-82
2022/04/17 14:43:53;;;;;;;;;;;24.40;48.40;;;;;;6094058;23;19920;-81
2022/04/17 14:46:22;;;;;;;;;;;24.50;47.40;;;;;;6141968;23;19931;-82
2022/04/17 14:48:49;;;;;;;;;;;24.60;46.60;;;;;;6144194;23;19955;-82
2022/04/17 14:51:17;;;;;;;;;;;24.60;47.60;;;;;;6125095;23;19966;-80
2022/04/17 14:53:46;;;;;;;;;;;24.60;46.50;;;;;;6146815;23;19921;-82
2022/04/17 14:56:16;;;;;;;;;;;24.20;45.30;;;;;;6143822;23;19928;-82